Tweed New Haven Airport
KHVN : rendu visible

Aérodrome :











RETROUVEZ-NOUS SUR...

 
LOGIN :

S'inscrire | Disclaimer

   EN    FR    IT 

 









Légende :    VFR   VFR Marginal   IFR   IFR Intensif   IFR Très Intensif
Visi : 
Plafond : 
>= 8 km
>= 3000ft
5 à 8 km
1000 à 3000 ft
1500m à 5 km
500 à 1000 ft
800 à 1500m
200 à 500 ft
< 800m
< 200 ft
Symboles :   Orages  Brouillard  Fortes neiges  Fortes précipitations  Vent > 20 kt






- Altitude de l'aérodrome : 12 ft
- Code IATA : HVN


KHVN - Tweed New Haven

DERNIER METAR :
  • 271210Z 18004KT 2SM R02/3500VP6000FT BR OVC003 16/16 A3025 RMK AO2 VIS 3/4V5 T01610156

METARs EXPIRÉS :
  • 271153Z 18003KT 1/2SM R02/2000VP6000FT FG OVC003 16/16 A3025 RMK AO2 SLP243 T01610156 10161 20156 53008
  • 271146Z 17004KT 1 3/4SM R02/4000VP6000FT BR OVC003 16/16 A3025 RMK AO2 VIS 3/4V5 T01610156
  • 271138Z 18003KT 3SM BR OVC003 16/15 A3025 RMK AO2 T01560150
  • 271126Z 17003KT 1 3/4SM R02/4000VP6000FT BR OVC003 16/15 A3025 RMK AO2 T01560150
  • 271114Z 19003KT 9SM OVC003 16/15 A3025 RMK AO2 T01560150
  • 271106Z 20003KT 2SM R02/4000VP6000FT BR OVC003 16/15 A3024 RMK AO2 T01560150
  • 271100Z 00000KT 3/4SM R02/3500VP6000FT BR OVC003 16/15 A3024 RMK AO2 T01610150
  • 271039Z 00000KT 1 3/4SM R02/5000VP6000FT BR OVC003 16/16 A3024 RMK AO2 T01560156
  • 271021Z 00000KT 3SM R02/5500VP6000FT BR OVC003 16/16 A3024 RMK AO2 T01560156
  • 270953Z 21003KT 1 1/2SM R02/4500VP6000FT BR OVC003 16/15 A3024 RMK AO2 SLP238 T01560150
  • 270927Z AUTO 21003KT 1 3/4SM R02/5500VP6000FT BR OVC003 16/16 A3023 RMK AO2 VIS 1 1/4V3 T01560156

TAF N/A
FIR KZBW / Amérique du Nord



MET'MAP, la Météo Aéronautique d'un coup d'oeil ! - Copyright ORBIFLY Décembre 2007 - Disclaimer

ORBIFLY MET'MAP TEAM :

Programmation & Développement : Alexandra Zaïnal
Sur une idée originale de : Baudouin d'Aumeries
Assistance à la programmation : Marc-Olivier Méhu
Soutien technique & logistique : Manuel Goepfert

Contact : metmap@orbifly.com




SOURCES & CREDITS :

   NOAA       Earth
Advisory